Time;durP1;ratioP1;P1;durP2;ratioP2;P2;SDS_P1;SDS_P2;PMS_P1;PMS_P2;Temp;Humidity;BMP_temperature;BMP_pressure;BME280_temperature;BME280_humidity;BME280_pressure;Samples;Min_cycle;Max_cycle;Signal;HPM_P1;HPM_P2
2024/02/10 00:00:19;;;;;;;13.70;8.70;;;9.70;99.90;;;;;;5014295;28;20252;-62
2024/02/10 00:02:46;;;;;;;15.70;9.57;;;9.70;99.90;;;;;;5013932;28;20474;-61
2024/02/10 00:05:14;;;;;;;10.47;8.67;;;9.80;99.90;;;;;;5014122;28;20948;-63
2024/02/10 00:07:41;;;;;;;13.30;8.77;;;9.80;99.90;;;;;;5014484;28;20437;-62
2024/02/10 00:10:10;;;;;;;11.40;8.20;;;9.80;99.90;;;;;;5014065;28;20960;-62
2024/02/10 00:12:37;;;;;;;15.80;8.80;;;9.80;99.90;;;;;;5013918;28;20473;-63
2024/02/10 00:15:05;;;;;;;11.03;7.47;;;9.80;99.90;;;;;;5014228;28;20454;-61
2024/02/10 00:17:33;;;;;;;13.90;7.63;;;9.80;99.90;;;;;;5014307;28;20912;-61
2024/02/10 00:20:00;;;;;;;12.57;7.90;;;9.80;99.90;;;;;;5014059;28;20528;-60
2024/02/10 00:22:27;;;;;;;8.60;7.70;;;9.80;99.90;;;;;;5013991;28;21061;-62
2024/02/10 00:24:55;;;;;;;9.80;7.63;;;9.80;99.90;;;;;;5014045;28;20952;-61
2024/02/10 00:27:22;;;;;;;13.17;7.83;;;9.80;99.90;;;;;;5014163;28;20533;-61
2024/02/10 00:29:49;;;;;;;8.85;7.88;;;9.80;99.90;;;;;;5017169;28;20446;-60
2024/02/10 00:32:18;;;;;;;9.90;7.50;;;9.80;99.90;;;;;;5016973;28;20222;-61
2024/02/10 00:34:46;;;;;;;11.30;7.40;;;9.80;99.90;;;;;;5018066;28;20461;-61
2024/02/10 00:37:16;;;;;;;9.93;8.50;;;9.80;99.90;;;;;;5017592;28;21050;-62
2024/02/10 00:39:44;;;;;;;13.23;8.47;;;9.80;99.90;;;;;;5017822;28;20449;-61
2024/02/10 00:42:10;;;;;;;12.03;8.07;;;9.80;99.90;;;;;;5017533;28;20515;-61
2024/02/10 00:44:38;;;;;;;15.60;6.93;;;9.80;99.90;;;;;;5017513;28;20446;-62
2024/02/10 00:47:12;;;;;;;13.43;7.70;;;9.70;99.90;;;;;;5017342;28;20453;-62
2024/02/10 00:49:39;;;;;;;10.77;7.63;;;9.70;99.90;;;;;;5017543;28;20429;-62
2024/02/10 00:52:09;;;;;;;13.60;8.60;;;9.70;99.90;;;;;;5017216;28;20631;-60
2024/02/10 00:54:37;;;;;;;13.27;7.80;;;9.70;99.90;;;;;;5017805;28;20441;-61
2024/02/10 00:57:05;;;;;;;13.33;8.57;;;9.70;99.90;;;;;;5017332;28;20835;-61
2024/02/10 00:59:32;;;;;;;11.05;8.13;;;9.70;99.90;;;;;;5016821;28;20481;-62
2024/02/10 01:02:00;;;;;;;12.73;8.20;;;9.70;99.90;;;;;;5016512;28;20235;-61
2024/02/10 01:04:29;;;;;;;13.80;8.07;;;9.70;99.90;;;;;;5016756;28;20449;-61
2024/02/10 01:06:56;;;;;;;17.70;9.00;;;9.70;99.90;;;;;;5016917;28;20449;-62
2024/02/10 01:09:24;;;;;;;12.70;8.10;;;9.70;99.90;;;;;;5016976;28;20529;-61
2024/02/10 01:11:51;;;;;;;14.70;7.83;;;9.70;99.90;;;;;;5017060;28;20223;-61
2024/02/10 01:14:18;;;;;;;13.37;7.63;;;9.70;99.90;;;;;;5017136;28;20546;-60
2024/02/10 01:16:45;;;;;;;12.70;8.90;;;9.70;99.90;;;;;;5021478;28;20448;-62
2024/02/10 01:19:12;;;;;;;12.50;8.30;;;9.70;99.90;;;;;;5024224;28;20494;-60
2024/02/10 01:21:39;;;;;;;13.40;8.60;;;9.70;99.90;;;;;;5017545;28;20484;-60
2024/02/10 01:24:07;;;;;;;13.47;8.63;;;9.70;99.90;;;;;;5017070;28;20442;-61
2024/02/10 01:26:35;;;;;;;9.50;8.13;;;9.70;99.90;;;;;;5017376;28;20448;-60
2024/02/10 01:29:03;;;;;;;11.30;8.27;;;9.70;99.90;;;;;;5018048;28;20449;-61
2024/02/10 01:31:30;;;;;;;14.63;9.00;;;9.80;99.90;;;;;;5017470;28;20506;-62
2024/02/10 01:33:57;;;;;;;11.73;8.70;;;9.80;99.90;;;;;;5017210;28;20450;-61
2024/02/10 01:36:24;;;;;;;12.00;7.75;;;9.80;99.90;;;;;;5016658;28;20446;-62
2024/02/10 01:38:51;;;;;;;12.10;8.37;;;9.80;99.90;;;;;;5016790;28;20226;-61
2024/02/10 01:41:17;;;;;;;17.83;9.57;;;9.80;99.90;;;;;;5015212;28;20469;-62
2024/02/10 01:43:46;;;;;;;16.27;8.50;;;9.70;99.90;;;;;;5016387;28;20214;-61
2024/02/10 01:46:15;;;;;;;17.67;8.87;;;9.70;99.90;;;;;;5016170;28;20454;-61
2024/02/10 01:48:43;;;;;;;16.33;9.20;;;9.70;99.90;;;;;;5016285;28;20525;-60
2024/02/10 01:51:11;;;;;;;18.30;9.10;;;9.70;99.90;;;;;;5016127;28;20466;-60
2024/02/10 01:53:38;;;;;;;10.73;8.07;;;9.70;99.90;;;;;;5016148;28;20445;-61
2024/02/10 01:56:08;;;;;;;14.33;8.60;;;9.80;99.90;;;;;;5015600;28;20958;-61
2024/02/10 01:58:35;;;;;;;10.77;7.57;;;9.80;99.90;;;;;;5016115;28;20477;-60
2024/02/10 02:01:04;;;;;;;11.73;8.50;;;9.80;99.90;;;;;;5015661;28;20457;-60
2024/02/10 02:03:31;;;;;;;11.47;7.87;;;9.80;99.90;;;;;;5016131;28;20793;-61
2024/02/10 02:05:58;;;;;;;11.83;8.43;;;9.80;99.90;;;;;;5015997;28;20455;-61
2024/02/10 02:08:25;;;;;;;12.23;8.10;;;9.80;99.90;;;;;;5015980;28;20445;-65
2024/02/10 02:10:52;;;;;;;11.65;8.05;;;9.80;99.90;;;;;;5015632;28;20442;-64
2024/02/10 02:13:22;;;;;;;12.67;8.10;;;9.80;99.90;;;;;;5016465;28;20211;-63
2024/02/10 02:15:49;;;;;;;14.73;9.13;;;9.80;99.90;;;;;;5016847;28;20488;-63
2024/02/10 02:18:17;;;;;;;12.68;8.60;;;9.80;99.90;;;;;;5016667;28;20481;-64
2024/02/10 02:20:46;;;;;;;10.47;8.23;;;9.80;99.90;;;;;;5016129;28;20203;-61
2024/02/10 02:23:18;;;;;;;11.82;7.28;;;9.80;99.90;;;;;;5015569;28;20541;-61
2024/02/10 02:25:48;;;;;;;11.00;7.50;;;9.80;99.90;;;;;;5016027;28;20196;-61
2024/02/10 02:28:15;;;;;;;12.30;8.00;;;9.80;99.90;;;;;;5015915;28;20786;-59
2024/02/10 02:30:42;;;;;;;12.53;8.87;;;9.80;99.90;;;;;;5015592;28;20445;-60
2024/02/10 02:33:10;;;;;;;10.83;7.50;;;9.90;99.90;;;;;;5015640;28;20469;-60
2024/02/10 02:35:38;;;;;;;11.30;7.17;;;9.90;99.90;;;;;;5014763;28;20924;-60
2024/02/10 02:38:05;;;;;;;12.10;7.90;;;9.90;99.90;;;;;;5014648;28;21042;-60
2024/02/10 02:40:33;;;;;;;13.53;8.30;;;9.90;99.90;;;;;;5015000;28;20498;-60
2024/02/10 02:43:02;;;;;;;11.20;7.60;;;9.90;99.90;;;;;;5015002;28;20462;-60
2024/02/10 02:45:30;;;;;;;9.73;7.60;;;9.90;99.90;;;;;;5015014;28;20457;-61
2024/02/10 02:48:01;;;;;;;11.30;7.60;;;9.90;99.90;;;;;;5014911;28;20450;-61
2024/02/10 02:50:29;;;;;;;11.40;7.40;;;9.90;99.90;;;;;;5015145;28;20426;-60
2024/02/10 02:52:59;;;;;;;14.00;7.63;;;9.80;99.90;;;;;;5013811;28;20469;-60
2024/02/10 02:55:26;;;;;;;16.30;7.80;;;9.80;99.90;;;;;;5014512;28;20911;-60
2024/02/10 02:57:55;;;;;;;14.17;7.60;;;9.80;99.90;;;;;;5015030;28;20446;-59
2024/02/10 03:00:22;;;;;;;8.90;7.00;;;9.80;99.90;;;;;;5014842;28;20453;-60
2024/02/10 03:02:51;;;;;;;11.70;8.00;;;9.80;99.90;;;;;;5051879;22;20234;-66
2024/02/10 03:05:18;;;;;;;10.50;7.70;;;9.80;99.90;;;;;;5034093;28;20198;-66
2024/02/10 03:07:45;;;;;;;12.17;7.93;;;9.80;99.90;;;;;;5034046;28;20440;-66
2024/02/10 03:10:13;;;;;;;11.83;8.20;;;9.80;99.90;;;;;;5034165;28;20429;-66
2024/02/10 03:12:41;;;;;;;10.00;8.07;;;9.80;99.90;;;;;;5033880;28;20457;-66
2024/02/10 03:15:11;;;;;;;12.00;7.70;;;9.80;99.90;;;;;;5033570;28;20874;-66
2024/02/10 03:17:38;;;;;;;12.07;7.57;;;9.70;99.90;;;;;;5033803;28;20860;-66
2024/02/10 03:20:06;;;;;;;10.63;9.50;;;9.80;99.90;;;;;;5033785;28;20511;-66
2024/02/10 03:22:33;;;;;;;9.63;7.10;;;9.70;99.90;;;;;;5033720;28;20491;-67
2024/02/10 03:25:00;;;;;;;10.67;7.20;;;9.70;99.90;;;;;;5033360;28;20927;-66
2024/02/10 03:27:27;;;;;;;12.20;7.47;;;9.70;99.90;;;;;;5033678;28;20437;-66
2024/02/10 03:29:53;;;;;;;14.93;8.73;;;9.70;99.90;;;;;;5033539;28;20549;-66
2024/02/10 03:32:21;;;;;;;10.80;7.50;;;9.70;99.90;;;;;;5033402;28;20467;-66
2024/02/10 03:34:48;;;;;;;12.37;8.70;;;9.70;99.90;;;;;;5034634;28;20214;-65
2024/02/10 03:37:15;;;;;;;9.10;7.33;;;9.70;99.90;;;;;;5035671;28;20810;-65
2024/02/10 03:39:42;;;;;;;9.93;7.63;;;9.70;99.90;;;;;;5037287;28;20476;-66
2024/02/10 03:42:08;;;;;;;7.70;6.90;;;9.70;99.90;;;;;;5037440;28;20519;-66
2024/02/10 03:44:35;;;;;;;14.27;7.90;;;9.70;99.90;;;;;;5036771;28;20433;-66
2024/02/10 03:47:02;;;;;;;10.10;7.40;;;9.70;99.90;;;;;;5035272;28;20441;-66
2024/02/10 03:49:30;;;;;;;7.83;6.30;;;9.70;99.90;;;;;;5035094;28;20479;-66
2024/02/10 03:51:57;;;;;;;7.43;5.67;;;9.70;99.90;;;;;;5034656;28;20469;-65
2024/02/10 03:54:24;;;;;;;8.13;6.33;;;9.70;99.90;;;;;;5034960;28;20437;-67
2024/02/10 03:56:51;;;;;;;12.83;6.83;;;9.70;99.90;;;;;;5033646;28;20456;-67
2024/02/10 03:59:18;;;;;;;11.30;6.43;;;9.60;99.90;;;;;;5033934;28;20558;-69
2024/02/10 04:01:46;;;;;;;8.83;6.87;;;9.60;99.90;;;;;;5032907;28;20485;-67
2024/02/10 04:04:13;;;;;;;11.60;6.70;;;9.60;99.90;;;;;;5032946;28;20437;-67
2024/02/10 04:06:42;;;;;;;9.63;7.10;;;9.60;99.90;;;;;;5032989;28;20449;-66
2024/02/10 04:09:08;;;;;;;7.60;6.60;;;9.60;99.90;;;;;;5032998;28;20449;-66
2024/02/10 04:13:09;;;;;;;7.73;6.33;;;9.60;99.90;;;;;;5091067;28;20556;-67
2024/02/10 04:15:36;;;;;;;10.00;6.80;;;9.60;99.90;;;;;;5090892;28;20450;-67
2024/02/10 04:18:05;;;;;;;8.13;5.93;;;9.60;99.90;;;;;;5090643;28;20445;-67
2024/02/10 04:20:32;;;;;;;7.95;6.35;;;9.50;99.90;;;;;;5090694;28;20447;-67
2024/02/10 04:23:03;;;;;;;11.17;7.00;;;9.60;99.90;;;;;;5090260;28;20646;-67
2024/02/10 04:25:31;;;;;;;9.00;6.90;;;9.60;99.90;;;;;;5078332;22;21017;-64
2024/02/10 04:28:02;;;;;;;8.90;7.07;;;9.60;99.90;;;;;;5051025;28;20450;-64
2024/02/10 04:30:31;;;;;;;9.02;7.10;;;9.60;99.90;;;;;;5051195;28;20201;-64
2024/02/10 04:32:57;;;;;;;12.17;6.90;;;9.60;99.90;;;;;;5050092;28;20229;-64
2024/02/10 04:35:25;;;;;;;8.13;6.93;;;9.60;99.90;;;;;;5050340;28;20461;-64
2024/02/10 04:37:53;;;;;;;9.13;6.70;;;9.60;99.90;;;;;;5051082;28;20444;-64
2024/02/10 04:40:23;;;;;;;11.13;7.60;;;9.60;99.90;;;;;;5050605;28;20440;-64
2024/02/10 04:42:50;;;;;;;9.40;7.10;;;9.60;99.90;;;;;;5051585;28;20535;-64
2024/02/10 04:45:27;;;;;;;10.33;7.60;;;9.60;99.90;;;;;;5050914;28;20475;-64
2024/02/10 04:47:56;;;;;;;11.00;7.23;;;9.60;99.90;;;;;;5050483;28;20444;-64
2024/02/10 04:50:23;;;;;;;7.43;6.57;;;9.60;99.90;;;;;;5050713;28;20495;-64
2024/02/10 04:52:50;;;;;;;10.40;6.70;;;9.60;99.90;;;;;;5050568;28;20491;-64
2024/02/10 04:55:18;;;;;;;8.40;7.47;;;9.60;99.90;;;;;;5050210;28;20978;-64
2024/02/10 04:57:46;;;;;;;7.77;6.97;;;9.60;99.90;;;;;;5050514;28;20514;-65
2024/02/10 05:00:16;;;;;;;8.87;7.17;;;9.70;99.90;;;;;;5050013;28;20436;-64
2024/02/10 05:02:46;;;;;;;8.73;7.23;;;9.70;99.90;;;;;;5073218;22;20501;-66
2024/02/10 05:05:15;;;;;;;9.50;6.80;;;9.70;99.90;;;;;;5050384;28;20452;-66
2024/02/10 05:07:43;;;;;;;13.20;8.03;;;9.70;99.90;;;;;;5051074;28;20440;-67
2024/02/10 05:10:11;;;;;;;8.83;6.60;;;9.70;99.90;;;;;;5050085;28;20475;-66
2024/02/10 05:12:38;;;;;;;8.70;6.93;;;9.70;99.90;;;;;;5049047;28;21040;-67
2024/02/10 05:15:09;;;;;;;12.67;7.77;;;9.70;99.90;;;;;;5049596;28;20444;-67
2024/02/10 05:17:39;;;;;;;11.00;6.72;;;9.70;99.90;;;;;;5049805;28;20428;-67
2024/02/10 05:20:12;;;;;;;12.50;7.53;;;9.70;99.90;;;;;;5050079;28;20186;-66
2024/02/10 05:22:43;;;;;;;8.93;6.87;;;9.80;99.90;;;;;;5046262;28;20465;-66
2024/02/10 05:25:11;;;;;;;8.63;7.23;;;9.80;99.90;;;;;;5036577;28;20930;-67
2024/02/10 05:27:39;;;;;;;10.77;7.23;;;9.80;99.90;;;;;;5036470;28;20449;-68
2024/02/10 05:30:10;;;;;;;11.77;7.00;;;9.80;99.90;;;;;;5036064;28;20437;-66
2024/02/10 05:32:38;;;;;;;8.70;6.20;;;9.70;99.90;;;;;;5035891;28;20480;-66
2024/02/10 05:35:05;;;;;;;8.45;5.80;;;9.70;99.90;;;;;;5036254;28;20445;-67
2024/02/10 05:37:38;;;;;;;6.57;5.73;;;9.70;99.90;;;;;;5035806;28;20210;-66
2024/02/10 05:40:08;;;;;;;6.77;6.07;;;9.70;99.90;;;;;;5035907;28;20425;-67
2024/02/10 05:42:36;;;;;;;9.70;6.70;;;9.70;99.90;;;;;;5036204;28;20522;-67
2024/02/10 05:45:06;;;;;;;8.97;6.00;;;9.70;99.90;;;;;;5037632;28;20449;-67
2024/02/10 05:47:34;;;;;;;8.00;6.40;;;9.70;99.90;;;;;;5037889;28;20453;-67
2024/02/10 05:50:01;;;;;;;6.77;6.10;;;9.70;99.90;;;;;;5039031;28;20452;-67
2024/02/10 05:52:28;;;;;;;7.93;6.00;;;9.70;99.90;;;;;;5038000;28;20488;-66
2024/02/10 05:54:55;;;;;;;6.47;5.77;;;9.60;99.90;;;;;;5037245;28;20446;-64
2024/02/10 05:57:23;;;;;;;6.00;5.40;;;9.60;99.90;;;;;;5037453;28;20935;-65
2024/02/10 05:59:51;;;;;;;8.23;5.90;;;9.60;99.90;;;;;;5037019;28;21003;-66
2024/02/10 06:02:21;;;;;;;7.43;5.80;;;9.50;99.90;;;;;;5036481;28;20475;-64
2024/02/10 06:04:50;;;;;;;6.73;6.03;;;9.50;99.90;;;;;;5036768;28;20452;-65
2024/02/10 06:07:18;;;;;;;8.80;6.03;;;9.50;99.90;;;;;;5037880;28;20484;-65
2024/02/10 06:09:45;;;;;;;6.10;5.50;;;9.40;99.90;;;;;;5036910;28;20449;-66
2024/02/10 06:12:11;;;;;;;7.97;5.43;;;9.40;99.90;;;;;;5043019;28;20481;-66
2024/02/10 06:14:41;;;;;;;8.40;6.87;;;9.40;99.90;;;;;;5045543;28;20456;-66
2024/02/10 06:17:08;;;;;;;7.17;5.80;;;9.40;99.90;;;;;;5041486;28;20518;-65
2024/02/10 06:19:35;;;;;;;6.90;5.80;;;9.40;99.90;;;;;;5036924;28;20488;-66
2024/02/10 06:22:02;;;;;;;7.10;5.97;;;9.40;99.90;;;;;;5036691;28;20473;-65
2024/02/10 06:24:29;;;;;;;5.95;5.35;;;9.40;99.90;;;;;;5036643;28;20499;-65
2024/02/10 06:26:56;;;;;;;7.23;5.93;;;9.40;99.90;;;;;;5036750;28;20209;-64
2024/02/10 06:29:23;;;;;;;6.93;6.22;;;9.40;99.90;;;;;;5036635;28;20452;-67
2024/02/10 06:31:51;;;;;;;7.67;6.90;;;9.40;99.90;;;;;;5035532;28;20234;-65
2024/02/10 06:34:18;;;;;;;7.10;6.40;;;9.40;99.90;;;;;;5034924;28;20448;-65
2024/02/10 06:36:47;;;;;;;6.77;5.73;;;9.30;99.90;;;;;;5035016;28;20441;-66
2024/02/10 06:39:14;;;;;;;11.07;7.57;;;9.30;99.90;;;;;;5034763;28;20542;-65
2024/02/10 06:41:43;;;;;;;7.80;7.00;;;9.30;99.90;;;;;;5034705;28;20222;-66
2024/02/10 06:44:10;;;;;;;7.57;6.03;;;9.30;99.90;;;;;;5034854;28;20445;-66
2024/02/10 06:46:37;;;;;;;7.80;6.78;;;9.30;99.90;;;;;;5034930;28;20448;-65
2024/02/10 06:49:06;;;;;;;6.97;6.27;;;9.30;99.90;;;;;;5034581;28;20206;-65
2024/02/10 06:51:34;;;;;;;10.47;7.67;;;9.30;99.90;;;;;;5034364;28;20476;-64
2024/02/10 06:54:02;;;;;;;8.37;7.30;;;9.30;99.90;;;;;;5035307;28;20821;-66
2024/02/10 06:56:29;;;;;;;8.30;7.00;;;9.30;99.90;;;;;;5034089;28;20927;-65
2024/02/10 06:58:56;;;;;;;7.00;6.30;;;9.30;99.90;;;;;;5034929;28;20449;-66
2024/02/10 07:01:23;;;;;;;7.57;6.67;;;9.40;99.90;;;;;;5034761;28;20477;-67
2024/02/10 07:03:50;;;;;;;6.87;5.80;;;9.40;99.90;;;;;;5034797;28;20939;-65
2024/02/10 07:06:26;;;;;;;9.43;6.63;;;9.40;99.90;;;;;;5034404;28;20962;-65
2024/02/10 07:08:53;;;;;;;8.73;7.03;;;9.40;99.90;;;;;;5034742;28;20440;-65
2024/02/10 07:11:20;;;;;;;7.43;6.63;;;9.40;99.90;;;;;;5034417;28;20461;-65
2024/02/10 07:13:47;;;;;;;7.30;6.40;;;9.50;99.90;;;;;;5034202;28;20511;-66
2024/02/10 07:16:13;;;;;;;6.93;5.77;;;9.50;99.90;;;;;;5034167;28;20978;-65
2024/02/10 07:18:41;;;;;;;8.00;5.87;;;9.50;99.90;;;;;;5035600;28;20448;-65
2024/02/10 07:21:08;;;;;;;6.67;5.53;;;9.40;99.90;;;;;;5034868;28;20484;-66
2024/02/10 07:23:36;;;;;;;7.27;6.00;;;9.40;99.90;;;;;;5034870;28;20444;-66
2024/02/10 07:26:05;;;;;;;6.70;6.00;;;9.50;99.90;;;;;;5033791;28;20452;-65
2024/02/10 07:28:32;;;;;;;6.93;6.27;;;9.50;99.90;;;;;;5034043;28;20441;-66
2024/02/10 07:30:59;;;;;;;5.47;4.97;;;9.50;99.90;;;;;;5033913;28;20452;-66
2024/02/10 07:33:25;;;;;;;6.97;5.37;;;9.50;99.90;;;;;;5034386;28;20493;-64
2024/02/10 07:35:52;;;;;;;6.60;6.00;;;9.60;99.90;;;;;;5034726;28;20535;-66
2024/02/10 07:38:20;;;;;;;6.73;5.30;;;9.60;99.90;;;;;;5034448;28;20968;-66
2024/02/10 07:40:48;;;;;;;7.43;6.50;;;9.60;99.90;;;;;;5034712;28;20467;-67
2024/02/10 07:43:16;;;;;;;7.00;5.67;;;9.70;99.90;;;;;;5034832;28;20775;-65
2024/02/10 07:45:42;;;;;;;6.50;5.90;;;9.70;99.90;;;;;;5034428;28;20472;-65
2024/02/10 07:48:09;;;;;;;8.87;6.17;;;9.70;99.90;;;;;;5035185;28;20441;-65
2024/02/10 07:50:38;;;;;;;6.37;5.77;;;9.70;99.90;;;;;;5035066;28;20448;-66
2024/02/10 07:53:05;;;;;;;5.80;5.30;;;9.70;99.90;;;;;;5034838;28;20517;-65
2024/02/10 07:55:35;;;;;;;7.50;6.47;;;9.80;99.90;;;;;;5034980;28;20456;-66
2024/02/10 07:58:06;;;;;;;7.90;5.93;;;9.80;99.90;;;;;;5038780;28;20448;-66
2024/02/10 08:00:33;;;;;;;8.33;7.17;;;9.80;99.90;;;;;;5037675;28;20884;-65
2024/02/10 08:03:03;;;;;;;6.30;5.70;;;9.90;99.90;;;;;;5033948;28;20511;-67
2024/02/10 08:05:30;;;;;;;6.83;6.13;;;9.90;99.90;;;;;;5034853;28;20503;-66
2024/02/10 08:08:00;;;;;;;10.30;6.40;;;10.00;99.90;;;;;;5033873;28;20452;-66
2024/02/10 08:10:27;;;;;;;6.53;5.80;;;10.00;99.90;;;;;;5033876;28;20455;-65
2024/02/10 08:12:53;;;;;;;6.37;5.77;;;10.10;99.90;;;;;;5033707;28;20487;-66
2024/02/10 08:15:22;;;;;;;7.20;6.20;;;10.10;99.90;;;;;;5035231;28;20448;-66
2024/02/10 08:17:49;;;;;;;6.97;6.20;;;10.20;99.90;;;;;;5033963;28;20491;-66
2024/02/10 08:20:19;;;;;;;7.10;6.40;;;10.20;99.90;;;;;;5034244;28;20451;-65
2024/02/10 08:22:48;;;;;;;7.60;6.47;;;10.30;99.90;;;;;;5034570;28;20492;-66
2024/02/10 08:25:15;;;;;;;7.27;5.70;;;10.30;99.90;;;;;;5034796;28;20468;-66
2024/02/10 08:27:41;;;;;;;6.00;5.50;;;10.40;99.90;;;;;;5033482;28;20965;-66
2024/02/10 08:30:17;;;;;;;5.93;5.30;;;10.50;99.90;;;;;;5033521;28;20448;-65
2024/02/10 08:32:45;;;;;;;6.97;4.80;;;10.50;99.90;;;;;;5034568;28;20855;-67
2024/02/10 08:35:12;;;;;;;7.23;5.40;;;10.60;99.90;;;;;;5033445;28;20452;-66
2024/02/10 08:37:39;;;;;;;5.77;5.17;;;10.70;99.90;;;;;;5033644;28;20445;-66
2024/02/10 08:40:09;;;;;;;5.63;5.13;;;10.80;99.90;;;;;;5033192;28;20847;-66
2024/02/10 08:42:36;;;;;;;5.00;4.60;;;10.80;99.90;;;;;;5033914;28;20469;-66
2024/02/10 08:45:05;;;;;;;4.80;4.30;;;10.90;99.90;;;;;;5034088;28;20931;-67
2024/02/10 08:47:32;;;;;;;4.57;4.17;;;10.90;99.90;;;;;;5032973;28;20811;-66
2024/02/10 08:50:01;;;;;;;4.50;4.10;;;10.90;99.90;;;;;;5032806;28;20445;-65
2024/02/10 08:52:28;;;;;;;4.80;4.27;;;11.00;99.90;;;;;;5032912;28;20885;-66
2024/02/10 08:54:56;;;;;;;4.90;4.40;;;11.00;99.90;;;;;;5032851;28;20440;-66
2024/02/10 08:57:23;;;;;;;5.57;5.00;;;11.10;99.90;;;;;;5032857;28;20807;-66
2024/02/10 08:59:51;;;;;;;5.33;4.40;;;11.10;99.90;;;;;;5036309;28;20963;-66
2024/02/10 09:02:18;;;;;;;4.37;3.97;;;11.10;99.90;;;;;;5036278;28;20477;-65
2024/02/10 09:04:45;;;;;;;5.13;4.63;;;11.10;99.90;;;;;;5037188;28;20810;-67
2024/02/10 09:07:15;;;;;;;4.97;4.17;;;11.20;99.90;;;;;;5037770;28;20445;-65
2024/02/10 09:09:42;;;;;;;4.63;4.10;;;11.20;99.90;;;;;;5036875;28;20444;-65
2024/02/10 09:12:09;;;;;;;4.30;4.00;;;11.30;99.90;;;;;;5036964;28;20461;-65
2024/02/10 09:14:36;;;;;;;5.00;4.07;;;11.30;99.90;;;;;;5036824;28;20488;-65
2024/02/10 09:17:02;;;;;;;4.87;4.47;;;11.40;99.90;;;;;;5036608;28;20445;-66
2024/02/10 09:19:29;;;;;;;5.50;4.10;;;11.40;99.90;;;;;;5036401;28;20451;-65
2024/02/10 09:21:58;;;;;;;3.90;3.50;;;11.50;99.90;;;;;;5035988;28;20547;-65
2024/02/10 09:24:26;;;;;;;5.33;4.17;;;11.60;99.90;;;;;;5036831;28;20444;-65
2024/02/10 09:26:54;;;;;;;5.83;3.47;;;11.60;99.90;;;;;;5036546;28;20445;-65
2024/02/10 09:29:21;;;;;;;4.10;3.70;;;11.70;99.90;;;;;;5037565;28;20556;-64
2024/02/10 09:31:49;;;;;;;7.07;3.60;;;11.90;99.90;;;;;;5038078;28;20459;-65
2024/02/10 09:34:18;;;;;;;4.00;3.30;;;12.00;99.90;;;;;;5038761;28;20812;-65
2024/02/10 09:36:45;;;;;;;3.83;3.30;;;12.20;99.90;;;;;;5037383;28;20441;-65
2024/02/10 09:39:13;;;;;;;4.47;4.07;;;12.30;99.90;;;;;;5036193;28;20575;-65
2024/02/10 09:41:42;;;;;;;4.10;3.70;;;12.40;99.90;;;;;;5036529;28;20471;-66
2024/02/10 09:44:09;;;;;;;4.70;3.60;;;12.50;99.90;;;;;;5037276;28;20456;-65
2024/02/10 09:46:37;;;;;;;10.00;9.20;;;12.50;99.90;;;;;;5037179;28;20449;-66
2024/02/10 09:49:06;;;;;;;4.10;3.57;;;12.60;99.90;;;;;;5036233;28;21005;-65
2024/02/10 09:51:34;;;;;;;4.10;3.67;;;12.70;99.90;;;;;;5035946;28;20465;-64
2024/02/10 09:54:01;;;;;;;3.87;3.47;;;12.80;99.90;;;;;;5036289;28;20480;-66
2024/02/10 09:56:29;;;;;;;4.13;3.73;;;12.90;99.90;;;;;;5035976;28;20455;-65
2024/02/10 09:58:57;;;;;;;3.93;3.40;;;13.00;99.90;;;;;;5036518;28;20879;-64
2024/02/10 10:01:31;;;;;;;3.57;3.27;;;13.00;99.90;;;;;;5035756;28;21017;-65
2024/02/10 10:03:58;;;;;;;3.47;3.17;;;13.10;99.90;;;;;;5036471;28;20436;-66
2024/02/10 10:06:24;;;;;;;5.03;4.53;;;13.10;99.90;;;;;;5036077;28;20456;-66
2024/02/10 10:08:51;;;;;;;4.10;3.70;;;13.10;99.90;;;;;;5036484;28;20441;-64
2024/02/10 10:11:18;;;;;;;3.33;2.77;;;13.20;99.90;;;;;;5036525;28;20819;-66
2024/02/10 10:13:46;;;;;;;4.30;3.80;;;13.30;99.90;;;;;;5037220;28;20484;-65
2024/02/10 10:16:14;;;;;;;3.70;3.10;;;13.40;99.90;;;;;;5037027;28;20456;-67
2024/02/10 10:18:42;;;;;;;3.80;3.50;;;13.40;99.90;;;;;;5036959;28;20441;-65
2024/02/10 10:21:10;;;;;;;3.90;3.50;;;13.40;99.90;;;;;;5036297;28;20475;-66
2024/02/10 10:23:38;;;;;;;3.80;3.50;;;13.40;99.90;;;;;;5035852;28;20445;-65
2024/02/10 10:26:05;;;;;;;4.47;3.30;;;13.40;99.90;;;;;;5037507;28;20448;-66
2024/02/10 10:28:32;;;;;;;3.93;3.07;;;13.40;99.90;;;;;;5035929;28;20453;-65
2024/02/10 10:31:00;;;;;;;3.53;3.20;;;13.50;99.90;;;;;;5036755;28;20453;-65
2024/02/10 10:33:29;;;;;;;3.83;2.83;;;13.60;99.90;;;;;;5036348;28;20477;-65
2024/02/10 10:35:56;;;;;;;3.30;2.80;;;13.60;99.90;;;;;;5037760;28;20445;-64
2024/02/10 10:38:23;;;;;;;2.53;2.33;;;13.60;99.90;;;;;;5036429;28;20452;-66
2024/02/10 10:40:52;;;;;;;2.90;2.27;;;13.70;99.90;;;;;;5035848;28;20440;-64
2024/02/10 10:43:21;;;;;;;2.63;2.43;;;13.70;99.90;;;;;;5035433;28;20438;-65
2024/02/10 10:45:48;;;;;;;2.43;2.07;;;13.70;99.90;;;;;;5035748;28;20460;-65
2024/02/10 10:48:15;;;;;;;2.80;2.30;;;13.70;99.90;;;;;;5036366;28;20453;-66
2024/02/10 10:50:43;;;;;;;3.50;2.60;;;13.70;99.90;;;;;;5036339;28;20445;-65
2024/02/10 10:53:10;;;;;;;2.30;2.10;;;13.70;99.90;;;;;;5035717;28;20481;-65
2024/02/10 10:55:42;;;;;;;2.00;1.40;;;13.80;99.90;;;;;;5036153;28;20445;-65
2024/02/10 10:58:14;;;;;;;1.70;1.60;;;13.80;99.90;;;;;;5035622;28;20448;-66
2024/02/10 11:00:43;;;;;;;2.80;1.50;;;13.70;99.90;;;;;;5036209;28;20813;-65
2024/02/10 11:03:10;;;;;;;2.67;1.90;;;13.70;99.90;;;;;;5038623;28;20532;-65
2024/02/10 11:05:41;;;;;;;3.70;2.20;;;13.70;99.90;;;;;;5036390;28;20445;-66
2024/02/10 11:08:13;;;;;;;2.50;1.90;;;13.80;99.90;;;;;;5035376;28;20429;-65
2024/02/10 11:10:41;;;;;;;3.37;3.07;;;13.80;99.90;;;;;;5035822;28;20452;-64
2024/02/10 11:13:08;;;;;;;2.67;2.47;;;13.90;99.90;;;;;;5035752;28;20445;-66
2024/02/10 11:15:40;;;;;;;2.63;2.33;;;14.00;99.90;;;;;;5034928;28;20441;-66
2024/02/10 11:18:15;;;;;;;2.47;2.17;;;14.10;99.90;;;;;;5035594;28;20464;-66
2024/02/10 11:20:42;;;;;;;2.27;2.07;;;14.10;99.90;;;;;;5034951;28;20425;-65
2024/02/10 11:23:18;;;;;;;2.43;2.23;;;14.20;99.90;;;;;;5035640;28;20449;-65
2024/02/10 11:25:46;;;;;;;3.37;2.20;;;14.20;99.90;;;;;;5037230;28;20417;-65
2024/02/10 11:28:23;;;;;;;2.10;1.90;;;14.20;99.90;;;;;;5036011;28;20452;-66
2024/02/10 11:30:50;;;;;;;2.97;2.10;;;14.30;99.90;;;;;;5035213;28;20892;-65
2024/02/10 11:33:22;;;;;;;2.40;2.20;;;14.40;99.90;;;;;;5036055;28;20489;-64
2024/02/10 11:35:50;;;;;;;1.90;1.70;;;14.50;99.90;;;;;;5034863;28;20437;-65
2024/02/10 11:38:20;;;;;;;2.40;2.20;;;14.60;99.90;;;;;;5034757;28;20455;-65
2024/02/10 11:40:47;;;;;;;2.47;2.27;;;14.80;99.90;;;;;;5034376;28;20794;-66
2024/02/10 11:43:14;;;;;;;3.50;1.70;;;14.90;99.90;;;;;;5034377;28;20479;-66
2024/02/10 11:45:42;;;;;;;1.90;1.60;;;15.00;99.90;;;;;;5034558;28;20452;-66
2024/02/10 11:48:09;;;;;;;2.40;1.30;;;15.00;99.90;;;;;;5035549;28;20445;-66
2024/02/10 11:50:42;;;;;;;2.13;1.30;;;15.00;99.90;;;;;;5037362;28;20445;-67
2024/02/10 11:53:11;;;;;;;1.57;1.30;;;15.00;99.90;;;;;;5035730;28;20529;-65
2024/02/10 11:55:41;;;;;;;2.07;1.70;;;15.10;99.90;;;;;;5034615;28;20495;-66
2024/02/10 11:58:09;;;;;;;1.90;1.30;;;15.20;99.90;;;;;;5035774;28;20444;-67
2024/02/10 12:00:36;;;;;;;1.23;1.13;;;15.10;99.90;;;;;;5036528;28;20959;-65
2024/02/10 12:03:04;;;;;;;1.60;1.50;;;15.00;99.90;;;;;;5034896;28;20473;-66
2024/02/10 12:05:34;;;;;;;2.20;1.63;;;14.80;99.90;;;;;;5036277;28;20486;-65
2024/02/10 12:08:02;;;;;;;2.10;1.17;;;14.70;99.90;;;;;;5036447;28;20864;-65
2024/02/10 12:10:29;;;;;;;1.50;1.30;;;14.70;99.90;;;;;;5035823;28;20451;-67
2024/02/10 12:12:57;;;;;;;1.77;1.60;;;14.60;99.90;;;;;;5036391;28;20466;-65
2024/02/10 12:15:26;;;;;;;1.40;1.10;;;14.60;99.90;;;;;;5035470;28;20477;-65
2024/02/10 12:17:55;;;;;;;1.67;1.40;;;14.60;99.90;;;;;;5035508;28;20445;-66
2024/02/10 12:20:23;;;;;;;4.03;1.63;;;14.60;99.90;;;;;;5035534;28;20439;-65
2024/02/10 12:22:51;;;;;;;1.70;1.60;;;14.50;99.90;;;;;;5037239;28;20465;-64
2024/02/10 12:25:19;;;;;;;2.70;1.37;;;14.60;99.90;;;;;;5039691;28;20436;-65
2024/02/10 12:27:46;;;;;;;2.33;1.63;;;14.60;99.90;;;;;;5037206;28;20450;-65
2024/02/10 12:30:15;;;;;;;3.20;1.67;;;14.60;99.90;;;;;;5038469;28;20456;-65
2024/02/10 12:32:42;;;;;;;1.50;1.30;;;14.50;99.90;;;;;;5037223;28;21001;-65
2024/02/10 12:35:14;;;;;;;1.40;1.30;;;14.60;99.90;;;;;;5042688;28;20594;-64
2024/02/10 12:37:44;;;;;;;2.20;1.60;;;14.70;99.90;;;;;;5041790;28;20483;-66
2024/02/10 12:40:12;;;;;;;1.80;1.33;;;14.80;99.90;;;;;;5043147;28;20430;-66
2024/02/10 12:42:42;;;;;;;1.27;1.17;;;14.90;99.90;;;;;;5041430;28;20510;-65
2024/02/10 12:45:11;;;;;;;1.40;1.20;;;15.00;99.90;;;;;;5039722;28;20470;-65
2024/02/10 12:47:42;;;;;;;2.00;1.30;;;15.10;99.90;;;;;;5038495;28;20440;-65
2024/02/10 12:50:09;;;;;;;1.93;1.37;;;15.30;99.90;;;;;;5038573;28;20801;-66
2024/02/10 12:52:38;;;;;;;1.57;1.27;;;15.40;99.90;;;;;;5039276;28;20467;-65
2024/02/10 12:55:09;;;;;;;1.80;1.30;;;15.40;99.90;;;;;;5037746;28;20483;-65